»·PEaware :: JTL712 KJAC-KBOI

JTL712 :: KJAC-KBOI

FLIGHT INFORMATION

Flight Status: Arrived
Operator: Unknown
More flights by this operator :: More flights under this callsign
Pilot: Jarret G. (34943)
Aircraft: Unknown
(E35L)
More flights by this aircraft type
Origin: KJAC Jackson Hole
United States
Destination: KBOI Boise Air Terminal/Gowen
United States
More flights between these airports :: More routes between these airports
Route: ALPIN2 KICNE REAPS KOURT3
File this flight plan on PilotEdge
Remarks: RMK / SIMBRIEF
Altitude:
(Current/Filed)
40,000ft
Speed:
(Current/Filed)
421kts
Departed: 03-Jun-21 09:24 AM
Arrived: 03-Jun-21 10:22 AM
Distance/Time
Traveled:
239nm/0:58
Distance/Time
To Go:
Arrived

Flight Plot

Page will automatically refresh every two minutes.

Flight plan parsing failed; only flown route is shown


Map Options




Map Legend


Flown Route
Filed Route
Departure Airport
Arrival Airport
Navaid (VOR, NDB)
Fix

Horizontal Profiles

Position Reports

Time Latitude Longitude Heading Altitude Ground
Speed
03-Jun-21 09:00 43.599206 -110.738833 199 6417ft 0kts
03-Jun-21 09:01 43.599206 -110.738833 199 6417ft 0kts
03-Jun-21 09:02 43.599206 -110.738833 199 6417ft 0kts
03-Jun-21 09:03 43.599206 -110.738833 199 6417ft 0kts
03-Jun-21 09:04 43.599206 -110.738833 199 6417ft 0kts
03-Jun-21 09:05 43.599206 -110.738833 198 6417ft 0kts
03-Jun-21 09:06 43.599206 -110.738833 198 6417ft 0kts
03-Jun-21 09:07 43.599206 -110.738833 198 6417ft 0kts
03-Jun-21 09:08 43.599206 -110.738833 198 6417ft 0kts
03-Jun-21 09:09 43.599206 -110.738833 198 6417ft 0kts
03-Jun-21 09:10 43.599206 -110.738833 198 6417ft 0kts
03-Jun-21 09:11 43.599206 -110.738833 198 6417ft 0kts
03-Jun-21 09:12 43.599206 -110.738833 198 6417ft 0kts
03-Jun-21 09:13 43.599206 -110.738833 198 6417ft 0kts
03-Jun-21 09:14 43.599206 -110.738833 198 6417ft 0kts
03-Jun-21 09:15 43.599206 -110.738833 198 6417ft 0kts
03-Jun-21 09:16 43.599206 -110.738833 198 6417ft 0kts
03-Jun-21 09:17 43.599206 -110.738833 198 6417ft 0kts
03-Jun-21 09:18 43.599539 -110.738942 4 6418ft 6kts
03-Jun-21 09:19 43.602445 -110.738554 17 6424ft 19kts
03-Jun-21 09:20 43.609515 -110.735088 18 6437ft 31kts
03-Jun-21 09:21 43.614814 -110.732571 347 6447ft 0kts
03-Jun-21 09:22 43.614859 -110.732587 344 6447ft 3kts
03-Jun-21 09:23 43.606565 -110.738039 199 6433ft 144kts
03-Jun-21 09:24 43.558468 -110.764075 200 8875ft 250kts
03-Jun-21 09:25 43.484239 -110.806252 203 12886ft 306kts
03-Jun-21 09:26 43.393922 -110.859492 201 14848ft 355kts
03-Jun-21 09:27 43.300165 -110.906008 200 14932ft 333kts
03-Jun-21 09:28 43.218189 -110.973840 252 16700ft 352kts
03-Jun-21 09:29 43.229922 -111.105234 281 21524ft 346kts
03-Jun-21 09:30 43.244573 -111.237230 266 25815ft 340kts
03-Jun-21 09:31 43.239263 -111.368134 271 29501ft 329kts
03-Jun-21 09:32 43.237129 -111.493277 271 32457ft 322kts
03-Jun-21 09:33 43.234953 -111.617193 272 34950ft 317kts
03-Jun-21 09:34 43.232643 -111.741035 271 37060ft 313kts
03-Jun-21 09:35 43.230294 -111.860461 271 38674ft 313kts
03-Jun-21 09:36 43.227794 -111.980976 271 40010ft 313kts
03-Jun-21 09:37 43.224982 -112.109341 270 40146ft 354kts
03-Jun-21 09:38 43.221650 -112.253178 270 40144ft 404kts
03-Jun-21 09:39 43.217840 -112.408477 270 40116ft 388kts
03-Jun-21 09:40 43.214092 -112.554504 270 40102ft 378kts
03-Jun-21 09:41 43.210228 -112.697693 269 40101ft 375kts
03-Jun-21 09:42 43.206159 -112.841837 269 40104ft 372kts
03-Jun-21 09:43 43.201951 -112.984542 269 40105ft 369kts
03-Jun-21 09:44 43.197645 -113.124726 268 40102ft 366kts
03-Jun-21 09:45 43.193169 -113.264842 268 40105ft 363kts
03-Jun-21 09:46 43.188514 -113.404778 268 39964ft 373kts
03-Jun-21 09:47 43.183431 -113.552779 268 38813ft 403kts
03-Jun-21 09:48 43.177689 -113.713294 267 37657ft 433kts
03-Jun-21 09:49 43.171586 -113.877225 267 36450ft 420kts
03-Jun-21 09:50 43.165532 -114.034070 267 35252ft 410kts
03-Jun-21 09:51 43.181487 -114.186146 285 33762ft 396kts
03-Jun-21 09:52 43.209618 -114.331122 284 31779ft 390kts
03-Jun-21 09:53 43.237202 -114.474159 284 29489ft 390kts
03-Jun-21 09:54 43.265072 -114.619771 284 27154ft 390kts
03-Jun-21 09:55 43.292886 -114.766113 284 24811ft 388kts
03-Jun-21 09:56 43.320532 -114.912663 284 24182ft 374kts
03-Jun-21 09:57 43.346726 -115.052563 284 24193ft 375kts
03-Jun-21 09:58 43.373531 -115.197121 284 24181ft 377kts
03-Jun-21 09:59 43.400491 -115.343847 284 23993ft 379kts
03-Jun-21 10:00 43.426989 -115.488013 284 23995ft 376kts
03-Jun-21 10:01 43.453082 -115.629550 284 23989ft 355kts
03-Jun-21 10:02 43.477631 -115.762132 283 23483ft 342kts
03-Jun-21 10:03 43.503025 -115.897023 283 19342ft 370kts
03-Jun-21 10:04 43.536072 -116.028212 295 16014ft 329kts
03-Jun-21 10:05 43.575215 -116.134060 295 16013ft 289kts
03-Jun-21 10:06 43.614033 -116.238211 295 16014ft 290kts
03-Jun-21 10:07 43.655370 -116.349035 295 16012ft 315kts
03-Jun-21 10:08 43.697562 -116.461725 295 16006ft 304kts
03-Jun-21 10:09 43.738002 -116.568982 295 15991ft 298kts
03-Jun-21 10:10 43.777591 -116.673122 295 15986ft 292kts
03-Jun-21 10:11 43.816814 -116.775797 295 15996ft 302kts
03-Jun-21 10:12 43.849880 -116.895842 255 15991ft 303kts
03-Jun-21 10:13 43.785468 -116.906202 117 15766ft 284kts
03-Jun-21 10:14 43.755763 -116.798161 113 13248ft 294kts
03-Jun-21 10:15 43.724243 -116.684516 113 11831ft 340kts
03-Jun-21 10:16 43.687875 -116.558402 113 9502ft 302kts
03-Jun-21 10:17 43.654061 -116.465174 124 6906ft 268kts
03-Jun-21 10:18 43.616480 -116.371313 116 4779ft 254kts
03-Jun-21 10:20 43.589493 -116.293750 118 3457ft 189kts
03-Jun-21 10:21 43.572949 -116.244943 116 2989ft 137kts
03-Jun-21 10:22 43.564323 -116.217175 356 2859ft 7kts
03-Jun-21 10:23 43.565023 -116.218268 294 2858ft 16kts
03-Jun-21 10:24 43.567649 -116.225897 298 2848ft 4kts
03-Jun-21 10:25 43.570176 -116.226059 285 2845ft 12kts
03-Jun-21 10:26 43.568910 -116.228046 89 2845ft 2kts
03-Jun-21 10:27 43.568910 -116.228035 88 2845ft 0kts
03-Jun-21 10:28 43.568910 -116.228035 88 2845ft 0kts
03-Jun-21 10:29 43.568910 -116.228035 88 2845ft 0kts
03-Jun-21 10:30 43.568910 -116.228035 88 2845ft 0kts
03-Jun-21 10:31 43.568910 -116.228035 88 2845ft 0kts
03-Jun-21 10:32 43.568910 -116.228035 88 2845ft 0kts
03-Jun-21 10:33 43.568910 -116.228035 88 2845ft 0kts
03-Jun-21 10:34 43.568910 -116.228035 88 2845ft 0kts
03-Jun-21 10:35 43.568910 -116.228035 88 2845ft 0kts
03-Jun-21 10:36 43.568910 -116.228035 88 2845ft 0kts

Navigation Log

Ident Type
Flight plan parsing failed, navigation log unavailable